Mount Pleasant, South Carolina
Current Conditions -  °F | °C
As of 3:35 PM on Tuesday 25 Nov 2014 (Local Time) from KLRO Reporting Station
Broken Clouds Broken Clouds  
Wind Chill: 64°   Ceiling: 7000
Heat Index: 64°   Visibility: 5mi
Dew Point: 64°   Wind: 5mph
Humidity: 100%   Direction: 340°NNW
Pressure: 29.98"   Gusts: NA
Location:  32.8°N, 79.89°W
Report Text: KLRO 252035Z AUTO 34004KT 5SM BKN070 18/18 A2998 RMK AO2 PWINO PNO
Loading
Personal Weather Stations






























Interactive Weather Map New forecast layout! Learn more

10-Day Weather Forecast

Advertisements
Track Severe Weather on mobile